Flight Track Log - Related Links

Times and Time Zones

All times are in EDT time to prevent confusion due to time zone crossing. See the RPA3228 flight status page for this flight to view local times or setup timezone preferences in your user account.


Time Position Orientation Groundspeed Altitude Reporting Facility
EDT Latitude Longitude Course Direction KTS MPH feet Rate Location/Type
Mon 10:23:20 AM 38.8000 -77.0333 61° Northeast 165 190 2,000  Level Potomac TRACON
Mon 10:24:20 AM 38.7500 -77.0167 165° South 238 274 4,800 3,097 Climbing Potomac TRACON
Mon 10:25:00 AM 38.9632 -76.6938 67° East  Level FlightAware Approximate
Mon 10:26:00 AM 39.0091 -76.5817 57° Northeast  Level FlightAware Approximate
Mon 10:26:26 AM 38.8231 -76.8758 56° Northeast 259 298 11,600  Level Washington Center
Mon 10:27:00 AM 39.0528 -76.4679 63° Northeast  Level FlightAware Approximate
Mon 10:28:00 AM 39.0998 -76.3560 61° Northeast  Level FlightAware Approximate
Mon 10:28:26 AM 38.9250 -76.6831 56° Northeast 310 357 17,300  Level Washington Center
Mon 10:29:26 AM 38.9781 -76.5797 57° Northeast 327 376 19,600 1,900 Climbing Washington Center
Mon 10:31:26 AM 39.0881 -76.3564 58° Northeast 360 414 23,000 1,133 Climbing Washington Center
Mon 10:32:26 AM 39.1431 -76.2447 58° Northeast 370 426 23,000  Level Washington Center
Mon 10:33:26 AM 39.1644 -76.1136 78° East 365 420 23,000 250 Level Washington Center
Mon 10:34:26 AM 39.1817 -75.9744 81° East 370 426 23,500 1,100 Climbing Washington Center
Mon 10:35:26 AM 39.2194 -75.8461 69° East 376 433 25,200 1,850 Climbing Washington Center
Mon 10:36:26 AM 39.2989 -75.7497 43° Northeast 378 435 27,200 1,700 Climbing Washington Center
Mon 10:37:26 AM 39.3761 -75.6453 46° Northeast 384 442 28,600 1,650 Climbing Washington Center
Mon 10:38:26 AM 39.4553 -75.5431 45° Northeast 403 464 30,500 1,650 Climbing Washington Center
Mon 10:39:26 AM 39.5364 -75.4381 45° Northeast 403 464 31,900 1,250 Climbing Washington Center
Mon 10:40:26 AM 39.6194 -75.3275 46° Northeast 409 471 33,000 550 Climbing Washington Center
Mon 10:41:26 AM 39.6900 -75.2303 47° Northeast 409 471 33,000  Level Washington Center
Mon 10:42:26 AM 39.7731 -75.1083 48° Northeast 409 471 33,000  Level Washington Center
Mon 10:44:00 AM 39.8831 -74.9503 48° Northeast 412 474 33,000  Level New York Center
Mon 10:44:59 AM 39.9686 -74.8336 46° Northeast 406 467 33,000  Level New York Center
Mon 10:46:00 AM 40.0386 -74.7319 48° Northeast 406 467 33,000  Level New York Center
Mon 10:46:59 AM 40.1239 -74.6119 47° Northeast 411 473 33,000  Level New York Center
Mon 10:47:58 AM 40.1961 -74.5100 47° Northeast 416 479 33,000  Level New York Center
Mon 10:48:59 AM 40.2844 -74.4114 40° Northeast 411 473 33,000  Level New York Center
Mon 10:49:58 AM 40.3817 -74.3075 39° Northeast 405 466 33,000  Level New York Center
Mon 10:50:58 AM 40.4569 -74.2214 41° Northeast 405 466 33,000  Level New York Center
Mon 10:53:27 AM 40.6767 -73.9917 38° Northeast 397 457 33,000  Level Boston Center
Mon 10:54:27 AM 40.7633 -73.8978 39° Northeast 397 457 33,000  Level Boston Center
Mon 10:55:25 AM 40.8458 -73.8092 39° Northeast 392 451 33,000  Level Boston Center
Mon 10:56:25 AM 40.9458 -73.7919 North 362 417 33,000  Level Boston Center
Mon 10:57:39 AM 41.0667 -73.7944 359° North 349 402 33,000  Level Boston Center
Mon 10:58:39 AM 41.1564 -73.7992 358° North 349 402 33,000  Level Boston Center
Mon 10:59:39 AM 41.2564 -73.8042 358° North 349 402 33,000  Level Boston Center
Mon 11:00:37 AM 41.3564 -73.8089 358° North 349 402 33,000  Level Boston Center
Mon 11:01:37 AM 41.4564 -73.8139 358° North 354 407 33,000  Level Boston Center
Mon 11:02:38 AM 41.5564 -73.8189 358° North 354 407 33,000  Level Boston Center
Mon 11:03:38 AM 41.6583 -73.8239 358° North 354 407 33,000  Level Boston Center
Mon 11:04:37 AM 41.7583 -73.8233 360° North 354 407 33,000  Level Boston Center
Mon 11:05:38 AM 41.8564 -73.8225 360° North 354 407 33,000  Level Boston Center
Mon 11:07:00 AM 41.9871 -73.8042 North  Level FlightAware Approximate
Mon 11:07:38 AM 42.0503 -73.8183 North 349 402 33,000  Level Boston Center
Mon 11:08:39 AM 42.1503 -73.8150 North 349 402 33,000  Level Boston Center
Mon 11:09:39 AM 42.2483 -73.8144 360° North 349 402 33,000  Level Boston Center
Mon 11:10:37 AM 42.3461 -73.8136 360° North 349 402 33,000  Level Boston Center
Mon 11:11:37 AM 42.4547 -73.8133 360° North 349 402 33,000  Level Boston Center
Mon 11:12:37 AM 42.5525 -73.8097 North 349 402 33,000 -347 Level Boston Center
Mon 11:13:38 AM 42.6506 -73.8064 North 349 402 32,300 -1,033 Descending Boston Center
Mon 11:14:39 AM 42.7486 -73.8028 North 349 402 30,900 -1,438 Descending Boston Center
Mon 11:15:39 AM 42.8428 -73.7739 13° North 349 402 29,400 -1,550 Descending Boston Center
Mon 11:16:39 AM 42.9267 -73.7358 18° North 349 402 27,800 -1,627 Descending Boston Center
Mon 11:17:37 AM 43.0228 -73.7011 15° North 339 390 26,200 -1,576 Descending Boston Center
Mon 11:18:37 AM 43.1106 -73.6717 14° North 327 376 24,700 -1,091 Descending Boston Center
Mon 11:19:38 AM 43.1861 -73.6389 18° North 321 369 24,000 -344 Descending Boston Center
Mon 11:20:39 AM 43.2719 -73.6092 14° North 316 364 24,000  Level Boston Center
Mon 11:21:39 AM 43.3556 -73.5767 16° North 316 364 24,000  Level Boston Center
Mon 11:22:37 AM 43.4392 -73.5439 16° North 316 364 24,000 -559 Level Boston Center
Mon 11:23:37 AM 43.5250 -73.5139 14° North 316 364 22,900 -1,350 Descending Boston Center
Mon 11:24:37 AM 43.6064 -73.4808 16° North 311 358 21,300 -1,636 Descending Boston Center
Mon 11:25:38 AM 43.6964 -73.4508 14° North 301 346 19,600 -1,537 Descending Boston Center
Mon 11:26:38 AM 43.7717 -73.4233 15° North 291 335 18,200 -1,140 Descending Boston Center
Mon 11:27:39 AM 43.8428 -73.3958 16° North 276 318 17,300 -1,091 Descending Boston Center
Mon 11:28:39 AM 43.9139 -73.3681 16° North 262 302 16,000 -1,300 Descending Boston Center
Mon 11:29:39 AM 43.9806 -73.3431 15° North 257 296 14,700 -1,373 Descending Boston Center
Mon 11:30:37 AM 44.0475 -73.3325 North 251 289 13,300 -1,627 Descending Boston Center
Mon 11:31:37 AM 44.1100 -73.3219 North 235 270 11,500 -1,636 Descending Boston Center
Mon 11:32:38 AM 44.1725 -73.3114 North 235 270 10,000 -1,587 Descending Boston Center
Mon 11:33:38 AM 44.2269 -73.3033 North 225 259 8,300 -1,934 Descending Boston Center
Mon 11:34:39 AM 44.2853 -73.2928 North 215 247 6,100 -2,132 Descending Boston Center
Mon 11:35:39 AM 44.3458 -73.2878 North 215 247 4,000 -1,261 Descending Boston Center
Mon 11:36:38 AM 44.4061 -73.2886 359° North 215 247 3,600 -857 Descending Boston Center
Mon 11:37:38 AM 44.4622 -73.2953 355° North 210 242 2,300 -1,300 Descending Boston Center

Login

Don't have an account? Register now (free) for customized features, flight alerts, and more!